createdAt,value
2023-05-21T00:00:41.837Z,21.51
2023-05-21T00:01:41.866Z,21.49
2023-05-21T00:02:41.924Z,21.48
2023-05-21T00:03:42.054Z,21.48
2023-05-21T00:04:41.832Z,21.48
2023-05-21T00:05:41.841Z,21.48
2023-05-21T00:06:41.787Z,21.48
2023-05-21T00:07:41.801Z,21.46
2023-05-21T00:08:41.800Z,21.48
2023-05-21T00:09:41.794Z,21.46
2023-05-21T00:10:41.787Z,21.45
2023-05-21T00:11:41.791Z,21.41
2023-05-21T00:12:42.008Z,21.42
2023-05-21T00:13:41.744Z,21.44
2023-05-21T00:14:41.771Z,21.41
2023-05-21T00:15:41.724Z,21.38
2023-05-21T00:16:41.742Z,21.38
2023-05-21T00:17:41.833Z,21.37
2023-05-21T00:18:41.732Z,21.33
2023-05-21T00:19:41.710Z,21.30
2023-05-21T00:20:41.751Z,21.31
2023-05-21T00:21:41.685Z,21.27
2023-05-21T00:22:41.699Z,21.28
2023-05-21T00:23:41.679Z,21.27
2023-05-21T00:24:41.690Z,21.27
2023-05-21T00:25:41.690Z,21.21
2023-05-21T00:26:41.621Z,21.20
2023-05-21T00:27:41.628Z,21.20
2023-05-21T00:28:41.677Z,21.18
2023-05-21T00:29:44.161Z,21.18
2023-05-21T00:30:41.649Z,21.20
2023-05-21T00:31:41.694Z,21.17
2023-05-21T00:32:41.663Z,21.17
2023-05-21T00:33:41.613Z,21.11
2023-05-21T00:34:41.584Z,21.10
2023-05-21T00:35:41.609Z,21.08
2023-05-21T00:36:41.575Z,21.07
2023-05-21T00:37:41.613Z,21.05
2023-05-21T00:38:41.568Z,21.05
2023-05-21T00:39:41.512Z,21.04
2023-05-21T00:40:41.584Z,21.01
2023-05-21T00:41:41.569Z,21.01
2023-05-21T00:42:41.601Z,21.01
2023-05-21T00:43:41.538Z,21.00
2023-05-21T00:44:41.507Z,20.98
2023-05-21T00:45:41.576Z,21.01
2023-05-21T00:46:41.512Z,21.00
2023-05-21T00:47:41.504Z,21.00
2023-05-21T00:48:41.473Z,21.00
2023-05-21T00:49:42.076Z,20.98
2023-05-21T00:50:41.486Z,20.97
2023-05-21T00:51:41.479Z,20.98
2023-05-21T00:52:41.455Z,20.98
2023-05-21T00:53:41.499Z,20.97
2023-05-21T00:54:41.450Z,20.98
2023-05-21T00:55:41.483Z,20.97
2023-05-21T00:56:41.443Z,20.97
2023-05-21T00:57:41.443Z,20.98
2023-05-21T00:58:41.418Z,20.97
2023-05-21T00:59:41.410Z,20.95
2023-05-21T01:00:41.413Z,20.95
2023-05-21T01:01:41.473Z,20.95
2023-05-21T01:02:41.447Z,20.91
2023-05-21T01:03:41.487Z,20.91
2023-05-21T01:04:41.416Z,20.90
2023-05-21T01:05:41.437Z,20.87
2023-05-21T01:06:41.393Z,20.89
2023-05-21T01:07:41.374Z,20.89
2023-05-21T01:08:41.364Z,20.90
2023-05-21T01:09:41.327Z,20.84
2023-05-21T01:10:41.369Z,20.87
2023-05-21T01:11:41.332Z,20.81
2023-05-21T01:12:41.322Z,20.81
2023-05-21T01:13:41.416Z,20.79
2023-05-21T01:14:41.294Z,20.79
2023-05-21T01:15:41.361Z,20.74
2023-05-21T01:16:41.367Z,20.73
2023-05-21T01:17:41.329Z,20.70
2023-05-21T01:18:41.354Z,20.70
2023-05-21T01:19:41.303Z,20.70
2023-05-21T01:20:41.284Z,20.70
2023-05-21T01:21:41.286Z,20.64
2023-05-21T01:22:41.274Z,20.60
2023-05-21T01:23:41.261Z,20.63
2023-05-21T01:24:41.214Z,20.60
2023-05-21T01:25:41.283Z,20.57
2023-05-21T01:26:41.233Z,20.62
2023-05-21T01:27:41.226Z,20.60
2023-05-21T01:28:41.196Z,20.59
2023-05-21T01:29:41.240Z,20.59
2023-05-21T01:30:41.311Z,20.59
2023-05-21T01:31:41.311Z,20.59
2023-05-21T01:32:41.398Z,20.57
2023-05-21T01:33:41.402Z,20.59
2023-05-21T01:34:41.372Z,20.56
2023-05-21T01:35:41.431Z,20.56
2023-05-21T01:36:41.542Z,20.54
2023-05-21T01:37:41.565Z,20.54
2023-05-21T01:38:41.625Z,20.54
2023-05-21T01:39:41.691Z,20.54
2023-05-21T01:40:41.801Z,20.54
2023-05-21T01:41:41.782Z,20.52
2023-05-21T01:42:41.841Z,20.53
2023-05-21T01:43:41.930Z,20.53
2023-05-21T01:44:41.923Z,20.53
2023-05-21T01:45:41.983Z,20.52
2023-05-21T01:46:42.042Z,20.53
2023-05-21T01:47:42.072Z,20.50
2023-05-21T01:48:42.071Z,20.50
2023-05-21T01:49:42.092Z,20.49
2023-05-21T01:50:42.108Z,20.47
2023-05-21T01:51:42.131Z,20.43
2023-05-21T01:52:42.126Z,20.39
2023-05-21T01:53:42.146Z,20.35
2023-05-21T01:54:42.147Z,20.32
2023-05-21T01:55:42.266Z,20.30
2023-05-21T01:56:42.195Z,20.29
2023-05-21T01:57:42.207Z,20.28
2023-05-21T01:58:42.218Z,20.28
2023-05-21T01:59:42.279Z,20.26
2023-05-21T02:00:42.285Z,20.26
2023-05-21T02:01:42.326Z,20.22
2023-05-21T02:02:42.388Z,20.22
2023-05-21T02:03:42.434Z,20.18
2023-05-21T02:04:42.325Z,20.18
2023-05-21T02:05:42.354Z,20.15
2023-05-21T02:06:42.386Z,20.12
2023-05-21T02:07:42.432Z,20.12
2023-05-21T02:08:42.445Z,20.11
2023-05-21T02:09:42.508Z,20.12
2023-05-21T02:10:42.544Z,20.11
2023-05-21T02:11:42.562Z,20.09
2023-05-21T02:12:42.642Z,20.11
2023-05-21T02:13:42.742Z,20.11
2023-05-21T02:14:42.738Z,20.07
2023-05-21T02:15:42.751Z,20.07
2023-05-21T02:16:42.800Z,20.07
2023-05-21T02:17:42.853Z,20.07
2023-05-21T02:18:42.909Z,20.04
2023-05-21T02:19:42.936Z,20.07
2023-05-21T02:20:42.919Z,20.07
2023-05-21T02:21:42.995Z,20.05
2023-05-21T02:22:43.009Z,20.04
2023-05-21T02:23:43.116Z,20.05
2023-05-21T02:24:43.121Z,20.05
2023-05-21T02:25:43.222Z,20.02
2023-05-21T02:26:43.225Z,20.00
2023-05-21T02:27:43.309Z,19.99
2023-05-21T02:28:43.354Z,20.00
2023-05-21T02:29:43.386Z,19.98
2023-05-21T02:30:43.424Z,19.98
2023-05-21T02:31:43.489Z,19.98
2023-05-21T02:32:43.627Z,19.96
2023-05-21T02:33:43.611Z,19.96
2023-05-21T02:34:43.669Z,19.99
2023-05-21T02:35:43.761Z,19.95
2023-05-21T02:36:43.735Z,19.93
2023-05-21T02:37:43.901Z,19.93
2023-05-21T02:38:43.985Z,19.92
2023-05-21T02:39:43.926Z,19.92
2023-05-21T02:40:43.979Z,19.91
2023-05-21T02:41:44.004Z,19.89
2023-05-21T02:42:44.067Z,19.89
2023-05-21T02:43:44.118Z,19.89
2023-05-21T02:44:44.169Z,19.88
2023-05-21T02:45:44.286Z,19.86
2023-05-21T02:46:44.294Z,19.86
2023-05-21T02:47:44.514Z,19.85
2023-05-21T02:48:44.420Z,19.85
2023-05-21T02:49:44.505Z,19.84
2023-05-21T02:50:44.551Z,19.81
2023-05-21T02:51:44.566Z,19.81
2023-05-21T02:52:44.614Z,19.79
2023-05-21T02:53:44.684Z,19.81
2023-05-21T02:54:44.758Z,19.79
2023-05-21T02:55:44.841Z,19.79
2023-05-21T02:56:45.886Z,19.78
2023-05-21T02:57:44.899Z,19.78
2023-05-21T02:58:44.980Z,19.77
2023-05-21T02:59:45.024Z,19.78
2023-05-21T03:00:45.088Z,19.77
2023-05-21T03:01:45.346Z,19.75
2023-05-21T03:02:45.311Z,19.74
2023-05-21T03:03:45.377Z,19.71
2023-05-21T03:04:45.306Z,19.71
2023-05-21T03:05:45.421Z,19.69
2023-05-21T03:06:45.490Z,19.67
2023-05-21T03:07:45.518Z,19.68
2023-05-21T03:08:45.592Z,19.67
2023-05-21T03:09:45.616Z,19.62
2023-05-21T03:10:45.680Z,19.65
2023-05-21T03:11:45.695Z,19.62
2023-05-21T03:12:45.682Z,19.61
2023-05-21T03:13:45.786Z,19.57
2023-05-21T03:14:45.775Z,19.60
2023-05-21T03:15:45.821Z,19.58
2023-05-21T03:16:45.951Z,19.57
2023-05-21T03:17:45.858Z,19.54
2023-05-21T03:18:45.871Z,19.55
2023-05-21T03:19:45.920Z,19.54
2023-05-21T03:20:45.917Z,19.55
2023-05-21T03:21:45.912Z,19.51
2023-05-21T03:22:45.933Z,19.51
2023-05-21T03:23:45.951Z,19.48
2023-05-21T03:24:45.932Z,19.45
2023-05-21T03:25:46.029Z,19.45
2023-05-21T03:26:45.962Z,19.42
2023-05-21T03:27:45.928Z,19.39
2023-05-21T03:28:45.941Z,19.41
2023-05-21T03:29:45.982Z,19.41
2023-05-21T03:30:45.969Z,19.39
2023-05-21T03:31:45.999Z,19.42
2023-05-21T03:32:46.036Z,19.44
2023-05-21T03:33:45.961Z,19.42
2023-05-21T03:34:45.989Z,19.45
2023-05-21T03:35:45.984Z,19.42
2023-05-21T03:36:45.935Z,19.42
2023-05-21T03:37:45.958Z,19.42
2023-05-21T03:38:45.965Z,19.44
2023-05-21T03:39:45.983Z,19.39
2023-05-21T03:40:46.006Z,19.39
2023-05-21T03:41:46.012Z,19.41
2023-05-21T03:42:46.010Z,19.42
2023-05-21T03:43:46.034Z,19.42
2023-05-21T03:44:46.102Z,19.42
2023-05-21T03:45:46.101Z,19.41
2023-05-21T03:46:46.093Z,19.41
2023-05-21T03:47:46.115Z,19.38
2023-05-21T03:48:46.149Z,19.39
2023-05-21T03:49:46.091Z,19.42
2023-05-21T03:50:46.144Z,19.39
2023-05-21T03:51:46.078Z,19.35
2023-05-21T03:52:46.159Z,19.34
2023-05-21T03:53:46.129Z,19.31
2023-05-21T03:54:46.174Z,19.31
2023-05-21T03:55:46.162Z,19.28
2023-05-21T03:56:46.133Z,19.28
2023-05-21T03:57:46.164Z,19.27
2023-05-21T03:58:46.154Z,19.27
2023-05-21T03:59:46.206Z,19.28
2023-05-21T04:00:46.216Z,19.26
2023-05-21T04:01:46.338Z,19.28
2023-05-21T04:02:46.430Z,19.30
2023-05-21T04:03:46.566Z,19.24
2023-05-21T04:04:46.496Z,19.20
2023-05-21T04:05:46.505Z,19.18
2023-05-21T04:06:46.513Z,19.18
2023-05-21T04:07:46.539Z,19.20
2023-05-21T04:08:46.629Z,19.18
2023-05-21T04:09:46.685Z,19.17
2023-05-21T04:10:46.759Z,19.16
2023-05-21T04:11:46.751Z,19.14
2023-05-21T04:12:46.821Z,19.14
2023-05-21T04:13:46.816Z,19.14
2023-05-21T04:14:46.819Z,19.03
2023-05-21T04:15:47.014Z,19.00
2023-05-21T04:16:47.017Z,18.99
2023-05-21T04:17:47.625Z,19.00
2023-05-21T04:18:47.185Z,18.97
2023-05-21T04:19:47.100Z,19.00
2023-05-21T04:20:47.161Z,19.02
2023-05-21T04:21:47.186Z,19.03
2023-05-21T04:22:47.244Z,19.04
2023-05-21T04:23:47.222Z,19.03
2023-05-21T04:24:47.213Z,19.03
2023-05-21T04:25:47.254Z,19.03
2023-05-21T04:26:47.258Z,19.03
2023-05-21T04:27:47.291Z,19.04
2023-05-21T04:28:47.324Z,19.03
2023-05-21T04:29:48.989Z,19.04
2023-05-21T04:30:47.352Z,19.09
2023-05-21T04:31:47.411Z,19.09
2023-05-21T04:32:47.333Z,19.11
2023-05-21T04:33:47.328Z,19.04
2023-05-21T04:34:47.354Z,19.03
2023-05-21T04:35:47.442Z,19.02
2023-05-21T04:36:47.293Z,19.02
2023-05-21T04:37:47.286Z,19.03
2023-05-21T04:38:47.276Z,19.03
2023-05-21T04:39:47.338Z,19.03
2023-05-21T04:40:47.237Z,19.04
2023-05-21T04:41:47.326Z,19.09
2023-05-21T04:42:47.222Z,19.06
2023-05-21T04:43:47.208Z,19.09
2023-05-21T04:44:47.235Z,19.10
2023-05-21T04:45:47.263Z,19.11
2023-05-21T04:46:47.272Z,19.13
2023-05-21T04:47:47.223Z,19.17
2023-05-21T04:48:47.188Z,19.18
2023-05-21T04:49:47.182Z,19.24
2023-05-21T04:50:47.213Z,19.26
2023-05-21T04:51:47.164Z,19.31
2023-05-21T04:52:47.156Z,19.34
2023-05-21T04:53:47.157Z,19.34
2023-05-21T04:54:47.162Z,19.38
2023-05-21T04:55:47.172Z,19.41
2023-05-21T04:56:47.160Z,19.42
2023-05-21T04:57:47.134Z,19.45
2023-05-21T04:58:47.141Z,19.45
2023-05-21T04:59:47.117Z,19.48
2023-05-21T05:00:47.366Z,19.51
2023-05-21T05:01:47.075Z,19.54
2023-05-21T05:02:47.209Z,19.53
2023-05-21T05:03:47.102Z,19.57
2023-05-21T05:04:47.084Z,19.61
2023-05-21T05:05:47.106Z,19.61
2023-05-21T05:06:47.082Z,19.64
2023-05-21T05:07:47.067Z,19.67
2023-05-21T05:08:47.020Z,19.67
2023-05-21T05:09:47.050Z,19.67
2023-05-21T05:10:47.044Z,19.67
2023-05-21T05:11:47.023Z,19.68
2023-05-21T05:12:47.058Z,19.67
2023-05-21T05:13:47.030Z,19.67
2023-05-21T05:14:47.034Z,19.71
2023-05-21T05:15:49.363Z,19.71
2023-05-21T05:16:47.063Z,19.75
2023-05-21T05:17:47.043Z,19.77
2023-05-21T05:18:47.032Z,19.78
2023-05-21T05:19:46.962Z,19.81
2023-05-21T05:20:47.015Z,19.82
2023-05-21T05:21:46.981Z,19.84
2023-05-21T05:22:47.301Z,19.82
2023-05-21T05:23:46.957Z,19.81
2023-05-21T05:24:46.944Z,19.82
2023-05-21T05:25:46.940Z,19.82
2023-05-21T05:26:46.917Z,19.84
2023-05-21T05:27:46.954Z,19.84
2023-05-21T05:28:46.909Z,19.82
2023-05-21T05:29:46.928Z,19.84
2023-05-21T05:30:47.028Z,19.81
2023-05-21T05:31:46.902Z,19.82
2023-05-21T05:32:46.980Z,19.84
2023-05-21T05:33:46.899Z,19.82
2023-05-21T05:34:46.896Z,19.85
2023-05-21T05:35:46.918Z,19.85
2023-05-21T05:36:46.878Z,19.72
2023-05-21T05:37:46.882Z,19.72
2023-05-21T05:38:46.882Z,19.72
2023-05-21T05:39:46.827Z,19.75
2023-05-21T05:40:46.858Z,19.75
2023-05-21T05:41:46.852Z,19.79
2023-05-21T05:42:46.810Z,19.81
2023-05-21T05:43:46.833Z,19.82
2023-05-21T05:44:46.845Z,19.85
2023-05-21T05:45:46.849Z,19.85
2023-05-21T05:46:46.889Z,19.88
2023-05-21T05:47:46.854Z,19.88
2023-05-21T05:48:46.823Z,19.89
2023-05-21T05:49:46.752Z,19.95
2023-05-21T05:50:46.772Z,19.95
2023-05-21T05:51:46.777Z,19.93
2023-05-21T05:52:46.779Z,19.96
2023-05-21T05:53:46.765Z,19.93
2023-05-21T05:54:46.720Z,19.96
2023-05-21T05:55:46.729Z,19.93
2023-05-21T05:56:46.744Z,19.96
2023-05-21T05:57:46.745Z,19.96
2023-05-21T05:58:46.710Z,19.99
2023-05-21T05:59:46.724Z,20.02
2023-05-21T06:00:46.740Z,20.04
2023-05-21T06:01:46.747Z,20.08
2023-05-21T06:02:46.803Z,20.08
2023-05-21T06:03:46.790Z,20.13
2023-05-21T06:04:46.741Z,20.13
2023-05-21T06:05:46.808Z,20.15
2023-05-21T06:06:46.767Z,20.13
2023-05-21T06:07:46.793Z,20.16
2023-05-21T06:08:46.815Z,20.18
2023-05-21T06:09:46.864Z,20.22
2023-05-21T06:10:46.891Z,20.26
2023-05-21T06:11:46.921Z,20.33
2023-05-21T06:12:46.945Z,20.37
2023-05-21T06:13:46.954Z,20.40
2023-05-21T06:14:46.924Z,20.40
2023-05-21T06:15:46.965Z,20.43
2023-05-21T06:16:46.955Z,20.46
2023-05-21T06:17:47.048Z,20.50
2023-05-21T06:18:47.110Z,20.52
2023-05-21T06:19:47.125Z,20.54
2023-05-21T06:20:47.185Z,20.54
2023-05-21T06:21:47.238Z,20.59
2023-05-21T06:22:47.264Z,20.60
2023-05-21T06:23:47.325Z,20.63
2023-05-21T06:24:47.361Z,20.63
2023-05-21T06:25:47.420Z,20.64
2023-05-21T06:26:47.402Z,20.71
2023-05-21T06:27:47.481Z,20.74
2023-05-21T06:28:47.493Z,20.76
2023-05-21T06:29:47.496Z,20.79
2023-05-21T06:30:47.567Z,20.81
2023-05-21T06:31:47.566Z,20.83
2023-05-21T06:32:47.635Z,20.80
2023-05-21T06:33:47.692Z,20.79
2023-05-21T06:34:47.577Z,20.76
2023-05-21T06:35:47.592Z,20.77
2023-05-21T06:36:47.620Z,20.81
2023-05-21T06:37:47.607Z,20.84
2023-05-21T06:38:47.617Z,20.86
2023-05-21T06:39:47.661Z,20.89
2023-05-21T06:40:47.668Z,20.87
2023-05-21T06:41:47.693Z,20.89
2023-05-21T06:42:47.689Z,20.90
2023-05-21T06:43:47.677Z,20.90
2023-05-21T06:44:47.756Z,20.93
2023-05-21T06:45:47.804Z,20.95
2023-05-21T06:46:47.772Z,20.97
2023-05-21T06:47:47.865Z,21.00
2023-05-21T06:48:47.783Z,21.00
2023-05-21T06:49:47.838Z,21.05
2023-05-21T06:50:47.836Z,21.05
2023-05-21T06:51:47.813Z,21.01
2023-05-21T06:52:47.832Z,20.97
2023-05-21T06:53:47.858Z,20.97
2023-05-21T06:54:47.910Z,21.00
2023-05-21T06:55:47.939Z,21.01
2023-05-21T06:56:47.941Z,21.01
2023-05-21T06:57:47.947Z,21.00
2023-05-21T06:58:47.939Z,20.95
2023-05-21T06:59:47.963Z,21.01
2023-05-21T07:00:48.033Z,21.00
2023-05-21T07:01:48.050Z,21.04
2023-05-21T07:02:48.125Z,21.04
2023-05-21T07:03:48.078Z,21.08
2023-05-21T07:04:48.078Z,21.14
2023-05-21T07:05:48.052Z,21.17
2023-05-21T07:06:48.084Z,21.20
2023-05-21T07:07:48.108Z,21.18
2023-05-21T07:08:48.177Z,21.17
2023-05-21T07:09:48.230Z,21.24
2023-05-21T07:10:48.225Z,21.30
2023-05-21T07:11:48.255Z,21.33
2023-05-21T07:12:48.331Z,21.33
2023-05-21T07:13:48.412Z,21.37
2023-05-21T07:14:48.475Z,21.41
2023-05-21T07:15:48.580Z,21.48
2023-05-21T07:16:48.652Z,21.51
2023-05-21T07:17:48.785Z,21.58
2023-05-21T07:18:48.769Z,21.65
2023-05-21T07:19:48.806Z,21.68
2023-05-21T07:20:48.859Z,21.72
2023-05-21T07:21:48.881Z,21.68
2023-05-21T07:22:48.885Z,21.71
2023-05-21T07:23:48.942Z,21.62
2023-05-21T07:24:48.949Z,21.61
2023-05-21T07:25:48.960Z,21.69
2023-05-21T07:26:48.913Z,21.72
2023-05-21T07:27:48.924Z,21.72
2023-05-21T07:28:48.984Z,21.79
2023-05-21T07:29:48.982Z,21.82
2023-05-21T07:30:49.039Z,21.88
2023-05-21T07:31:49.085Z,21.92
2023-05-21T07:32:49.174Z,21.95
2023-05-21T07:33:49.192Z,22.02
2023-05-21T07:34:49.232Z,22.07
2023-05-21T07:35:49.332Z,22.10
2023-05-21T07:36:49.345Z,22.17
2023-05-21T07:37:49.403Z,22.16
2023-05-21T07:38:49.453Z,22.23
2023-05-21T07:39:50.117Z,22.29
2023-05-21T07:40:49.556Z,22.35
2023-05-21T07:41:49.581Z,22.37
2023-05-21T07:42:49.595Z,22.39
2023-05-21T07:43:49.591Z,22.35
2023-05-21T07:44:49.612Z,22.37
2023-05-21T07:45:49.638Z,22.37
2023-05-21T07:46:49.727Z,22.32
2023-05-21T07:47:49.685Z,22.29
2023-05-21T07:48:49.673Z,22.30
2023-05-21T07:49:49.722Z,22.42
2023-05-21T07:50:49.679Z,22.51
2023-05-21T07:51:49.712Z,22.57
2023-05-21T07:52:49.714Z,22.61
2023-05-21T07:53:49.696Z,22.66
2023-05-21T07:54:49.720Z,22.71
2023-05-21T07:55:49.747Z,22.77
2023-05-21T07:56:49.694Z,22.84
2023-05-21T07:57:49.847Z,22.90
2023-05-21T07:58:49.859Z,22.93
2023-05-21T07:59:49.924Z,22.97
2023-05-21T08:00:49.962Z,23.02
2023-05-21T08:01:50.031Z,23.07
2023-05-21T08:02:50.172Z,23.12
2023-05-21T08:03:50.230Z,23.15
2023-05-21T08:04:50.144Z,23.26
2023-05-21T08:05:50.181Z,23.33
2023-05-21T08:06:50.207Z,23.37
2023-05-21T08:07:50.254Z,23.37
2023-05-21T08:08:50.281Z,23.38
2023-05-21T08:09:50.302Z,23.38
2023-05-21T08:10:50.430Z,23.41
2023-05-21T08:11:50.376Z,23.46
2023-05-21T08:12:50.409Z,23.51
2023-05-21T08:13:50.390Z,23.53
2023-05-21T08:14:50.465Z,23.61
2023-05-21T08:15:52.926Z,23.63
2023-05-21T08:16:50.482Z,23.66
2023-05-21T08:17:50.417Z,23.69
2023-05-21T08:18:50.389Z,23.70
2023-05-21T08:19:50.391Z,23.76
2023-05-21T08:20:50.400Z,23.82
2023-05-21T08:21:58.017Z,23.87
2023-05-21T08:22:50.347Z,23.89
2023-05-21T08:23:50.356Z,23.90
2023-05-21T08:24:50.373Z,23.92
2023-05-21T08:25:50.376Z,24.02
2023-05-21T08:26:50.323Z,24.06
2023-05-21T08:27:52.308Z,24.17
2023-05-21T08:28:50.341Z,24.17
2023-05-21T08:29:50.318Z,24.27
2023-05-21T08:30:50.331Z,24.33
2023-05-21T08:31:50.362Z,24.41
2023-05-21T08:32:50.390Z,24.47
2023-05-21T08:33:50.312Z,24.48
2023-05-21T08:34:50.372Z,24.56
2023-05-21T08:35:50.334Z,24.56
2023-05-21T08:36:50.348Z,24.61
2023-05-21T08:37:50.347Z,24.64
2023-05-21T08:38:50.359Z,24.60
2023-05-21T08:39:50.368Z,24.57
2023-05-21T08:40:50.402Z,24.64
2023-05-21T08:41:50.416Z,24.71
2023-05-21T08:42:50.390Z,24.79
2023-05-21T08:43:50.847Z,24.85
2023-05-21T08:44:50.392Z,24.92
2023-05-21T08:45:50.486Z,25.02
2023-05-21T08:46:50.426Z,25.09
2023-05-21T08:47:50.495Z,25.09
2023-05-21T08:48:50.495Z,25.09
2023-05-21T08:49:50.564Z,25.08
2023-05-21T08:50:50.648Z,25.07
2023-05-21T08:51:50.657Z,25.14
2023-05-21T08:52:50.694Z,25.22
2023-05-21T08:53:50.755Z,25.26
2023-05-21T08:54:50.780Z,25.30
2023-05-21T08:55:51.707Z,25.39
2023-05-21T08:56:50.801Z,25.46
2023-05-21T08:57:50.847Z,25.49
2023-05-21T08:58:50.929Z,25.45
2023-05-21T08:59:50.910Z,25.49
2023-05-21T09:00:51.034Z,25.56
2023-05-21T09:01:51.050Z,25.54
2023-05-21T09:02:51.017Z,25.60
2023-05-21T09:03:51.077Z,25.66
2023-05-21T09:04:50.991Z,25.73
2023-05-21T09:05:51.117Z,25.79
2023-05-21T09:06:51.097Z,25.87
2023-05-21T09:07:52.500Z,25.97
2023-05-21T09:08:51.126Z,26.01
2023-05-21T09:09:51.159Z,26.04
2023-05-21T09:10:59.301Z,26.05
2023-05-21T09:11:51.477Z,26.13
2023-05-21T09:12:51.297Z,26.14
2023-05-21T09:13:51.307Z,26.11
2023-05-21T09:14:51.269Z,26.17
2023-05-21T09:15:51.359Z,26.26
2023-05-21T09:16:51.299Z,26.27
2023-05-21T09:17:51.311Z,26.33
2023-05-21T09:18:51.341Z,26.43
2023-05-21T09:19:51.245Z,26.47
2023-05-21T09:20:51.218Z,26.56
2023-05-21T09:21:51.422Z,26.64
2023-05-21T09:22:51.684Z,26.68
2023-05-21T09:23:52.157Z,26.67
2023-05-21T09:24:51.130Z,26.68
2023-05-21T09:25:51.107Z,26.68
2023-05-21T09:26:51.131Z,26.72
2023-05-21T09:27:51.171Z,26.70
2023-05-21T09:28:51.215Z,26.64
2023-05-21T09:29:51.263Z,26.65
2023-05-21T09:30:51.282Z,26.72
2023-05-21T09:31:51.375Z,26.79
2023-05-21T09:32:51.409Z,26.94
2023-05-21T09:33:51.466Z,26.99
2023-05-21T09:34:51.465Z,27.05
2023-05-21T09:35:51.512Z,26.98
2023-05-21T09:36:51.576Z,27.05
2023-05-21T09:37:51.579Z,27.09
2023-05-21T09:38:51.662Z,27.15
2023-05-21T09:39:51.653Z,27.22
2023-05-21T09:40:51.745Z,27.19
2023-05-21T09:41:51.717Z,27.19
2023-05-21T09:42:51.806Z,27.12
2023-05-21T09:43:51.836Z,27.10
2023-05-21T09:44:51.816Z,27.12
2023-05-21T09:45:51.956Z,27.22
2023-05-21T09:46:51.925Z,27.28
2023-05-21T09:47:52.035Z,27.37
2023-05-21T09:48:51.976Z,27.29
2023-05-21T09:49:52.018Z,27.37
2023-05-21T09:50:52.096Z,27.43
2023-05-21T09:51:52.128Z,27.53
2023-05-21T09:52:52.648Z,27.46
2023-05-21T09:53:52.164Z,27.46
2023-05-21T09:54:52.156Z,27.45
2023-05-21T09:55:52.248Z,27.35
2023-05-21T09:56:52.291Z,27.52
2023-05-21T09:57:52.291Z,27.29
2023-05-21T09:58:52.338Z,27.43
2023-05-21T09:59:52.348Z,27.45
2023-05-21T10:00:52.369Z,27.49
2023-05-21T10:01:52.502Z,27.47
2023-05-21T10:02:52.445Z,27.53
2023-05-21T10:03:52.519Z,27.57
2023-05-21T10:04:52.538Z,27.59
2023-05-21T10:05:52.546Z,27.59
2023-05-21T10:06:52.595Z,27.54
2023-05-21T10:07:52.633Z,27.46
2023-05-21T10:08:52.619Z,27.33
2023-05-21T10:09:52.681Z,27.29
2023-05-21T10:10:52.736Z,27.35
2023-05-21T10:11:52.742Z,27.42
2023-05-21T10:12:52.739Z,27.43
2023-05-21T10:13:52.745Z,27.52
2023-05-21T10:14:52.895Z,27.56
2023-05-21T10:15:52.944Z,27.61
2023-05-21T10:16:52.981Z,27.69
2023-05-21T10:17:53.001Z,27.70
2023-05-21T10:18:53.074Z,27.71
2023-05-21T10:19:53.050Z,27.80
2023-05-21T10:20:53.077Z,27.83
2023-05-21T10:21:53.149Z,27.87
2023-05-21T10:22:53.168Z,27.86
2023-05-21T10:23:53.184Z,27.90
2023-05-21T10:24:53.173Z,27.93
2023-05-21T10:25:53.259Z,27.91
2023-05-21T10:26:53.245Z,27.93
2023-05-21T10:27:53.366Z,27.93
2023-05-21T10:28:53.364Z,27.81
2023-05-21T10:29:53.382Z,27.83
2023-05-21T10:30:53.408Z,27.83
2023-05-21T10:31:53.528Z,27.83
2023-05-21T10:32:53.639Z,27.90
2023-05-21T10:33:53.493Z,28.00
2023-05-21T10:34:53.582Z,28.03
2023-05-21T10:35:53.578Z,28.12
2023-05-21T10:36:53.608Z,27.87
2023-05-21T10:37:53.611Z,27.98
2023-05-21T10:38:53.681Z,28.03
2023-05-21T10:39:53.705Z,28.00
2023-05-21T10:40:53.709Z,28.05
2023-05-21T10:41:54.776Z,28.03
2023-05-21T10:42:53.819Z,28.18
2023-05-21T10:43:53.841Z,28.17
2023-05-21T10:44:54.994Z,28.20
2023-05-21T10:45:53.924Z,28.25
2023-05-21T10:46:53.911Z,28.37
2023-05-21T10:47:54.549Z,28.44
2023-05-21T10:48:53.959Z,28.45
2023-05-21T10:49:54.022Z,28.42
2023-05-21T10:50:54.024Z,28.54
2023-05-21T10:51:54.112Z,28.37
2023-05-21T10:52:54.094Z,28.38
2023-05-21T10:53:54.104Z,28.42
2023-05-21T10:54:54.208Z,28.47
2023-05-21T10:55:54.219Z,28.47
2023-05-21T10:56:54.281Z,28.44
2023-05-21T10:57:54.241Z,28.44
2023-05-21T10:58:54.259Z,28.42
2023-05-21T10:59:54.297Z,28.47
2023-05-21T11:00:54.359Z,28.50
2023-05-21T11:01:54.367Z,28.45
2023-05-21T11:02:54.475Z,28.47
2023-05-21T11:03:54.460Z,28.50
2023-05-21T11:04:54.427Z,28.50
2023-05-21T11:05:54.493Z,28.55
2023-05-21T11:06:54.554Z,28.55
2023-05-21T11:07:54.601Z,28.58
2023-05-21T11:08:55.708Z,28.66
2023-05-21T11:09:54.732Z,28.69
2023-05-21T11:10:54.752Z,28.61
2023-05-21T11:11:54.766Z,28.65
2023-05-21T11:12:54.788Z,28.63
2023-05-21T11:13:54.840Z,28.63
2023-05-21T11:14:54.857Z,28.65
2023-05-21T11:15:54.916Z,28.62
2023-05-21T11:16:54.975Z,28.62
2023-05-21T11:17:55.073Z,28.68
2023-05-21T11:18:55.119Z,28.73
2023-05-21T11:19:55.040Z,28.73
2023-05-21T11:20:55.106Z,28.76
2023-05-21T11:21:55.103Z,28.79
2023-05-21T11:22:55.106Z,28.76
2023-05-21T11:23:55.142Z,28.88
2023-05-21T11:24:55.164Z,28.68
2023-05-21T11:25:55.253Z,28.76
2023-05-21T11:26:55.198Z,28.83
2023-05-21T11:27:55.256Z,28.88
2023-05-21T11:28:55.271Z,28.93
2023-05-21T11:29:55.311Z,29.03
2023-05-21T11:30:55.403Z,28.98
2023-05-21T11:31:55.442Z,28.92
2023-05-21T11:32:55.483Z,29.02
2023-05-21T11:33:55.501Z,29.03
2023-05-21T11:34:55.531Z,29.07
2023-05-21T11:35:55.587Z,29.09
2023-05-21T11:36:55.564Z,29.22
2023-05-21T11:37:55.570Z,29.22
2023-05-21T11:38:55.628Z,29.26
2023-05-21T11:39:55.651Z,29.23
2023-05-21T11:40:55.838Z,29.17
2023-05-21T11:41:55.761Z,29.26
2023-05-21T11:42:55.874Z,29.37
2023-05-21T11:43:55.769Z,29.19
2023-05-21T11:44:55.779Z,29.14
2023-05-21T11:45:55.854Z,29.13
2023-05-21T11:46:55.963Z,29.22
2023-05-21T11:47:55.950Z,29.26
2023-05-21T11:48:55.904Z,29.33
2023-05-21T11:49:55.978Z,29.17
2023-05-21T11:50:55.975Z,29.26
2023-05-21T11:51:56.076Z,29.27
2023-05-21T11:52:56.016Z,29.36
2023-05-21T11:53:56.093Z,29.40
2023-05-21T11:54:56.140Z,29.40
2023-05-21T11:55:56.174Z,29.44
2023-05-21T11:56:56.236Z,29.33
2023-05-21T11:57:56.180Z,29.29
2023-05-21T11:58:56.251Z,29.29
2023-05-21T11:59:56.311Z,29.29
2023-05-21T12:00:56.317Z,29.16
2023-05-21T12:01:56.373Z,29.17
2023-05-21T12:02:56.784Z,29.13
2023-05-21T12:03:56.489Z,28.93
2023-05-21T12:04:56.409Z,28.83
2023-05-21T12:05:56.519Z,28.91
2023-05-21T12:06:56.550Z,28.93
2023-05-21T12:07:56.720Z,28.86
2023-05-21T12:08:56.591Z,28.82
2023-05-21T12:09:56.620Z,28.82
2023-05-21T12:10:56.639Z,28.78
2023-05-21T12:11:56.654Z,28.76
2023-05-21T12:12:57.484Z,28.71
2023-05-21T12:13:56.772Z,28.69
2023-05-21T12:14:56.706Z,28.65
2023-05-21T12:15:56.796Z,28.66
2023-05-21T12:16:56.902Z,28.68
2023-05-21T12:17:57.081Z,28.71
2023-05-21T12:18:56.913Z,28.73
2023-05-21T12:19:56.890Z,28.82
2023-05-21T12:20:56.971Z,28.91
2023-05-21T12:21:56.988Z,29.07
2023-05-21T12:22:57.033Z,29.24
2023-05-21T12:23:57.022Z,29.24
2023-05-21T12:24:57.089Z,29.27
2023-05-21T12:25:57.100Z,29.42
2023-05-21T12:26:57.108Z,29.53
2023-05-21T12:27:57.158Z,29.61
2023-05-21T12:28:57.182Z,29.60
2023-05-21T12:29:57.231Z,29.47
2023-05-21T12:30:57.246Z,29.53
2023-05-21T12:31:57.336Z,29.58
2023-05-21T12:32:57.336Z,29.67
2023-05-21T12:33:57.356Z,29.70
2023-05-21T12:34:57.371Z,29.84
2023-05-21T12:35:57.484Z,29.91
2023-05-21T12:36:57.494Z,30.01
2023-05-21T12:37:57.440Z,30.07
2023-05-21T12:38:57.440Z,30.17
2023-05-21T12:39:57.444Z,30.28
2023-05-21T12:40:57.504Z,30.35
2023-05-21T12:41:57.514Z,30.45
2023-05-21T12:42:57.599Z,30.55
2023-05-21T12:43:57.585Z,30.65
2023-05-21T12:44:57.610Z,30.72
2023-05-21T12:45:57.701Z,30.80
2023-05-21T12:46:57.759Z,30.85
2023-05-21T12:47:57.822Z,30.89
2023-05-21T12:48:57.932Z,30.93
2023-05-21T12:49:57.793Z,30.82
2023-05-21T12:50:57.878Z,30.68
2023-05-21T12:51:57.864Z,30.65
2023-05-21T12:52:57.843Z,30.58